sensor_id;sensor_type;location;lat;lon;timestamp;temperature;humidity
36352;DHT22;22382;44.768;17.206;2023-04-24T00:00:00;14.00;99.90
36352;DHT22;22382;44.768;17.206;2023-04-24T00:02:27;13.90;99.90
36352;DHT22;22382;44.768;17.206;2023-04-24T00:04:54;13.90;99.90
36352;DHT22;22382;44.768;17.206;2023-04-24T00:07:22;13.90;99.90
36352;DHT22;22382;44.768;17.206;2023-04-24T00:09:49;13.90;99.90
36352;DHT22;22382;44.768;17.206;2023-04-24T00:12:17;13.90;99.90
36352;DHT22;22382;44.768;17.206;2023-04-24T00:14:44;14.00;99.90
36352;DHT22;22382;44.768;17.206;2023-04-24T00:17:11;13.90;99.90
36352;DHT22;22382;44.768;17.206;2023-04-24T00:19:38;13.90;99.90
36352;DHT22;22382;44.768;17.206;2023-04-24T00:22:06;13.80;99.90
36352;DHT22;22382;44.768;17.206;2023-04-24T00:24:33;13.80;99.90
36352;DHT22;22382;44.768;17.206;2023-04-24T00:27:00;13.80;99.90
36352;DHT22;22382;44.768;17.206;2023-04-24T00:29:29;13.80;99.90
36352;DHT22;22382;44.768;17.206;2023-04-24T00:31:56;13.90;99.90
36352;DHT22;22382;44.768;17.206;2023-04-24T00:34:24;13.90;99.90
36352;DHT22;22382;44.768;17.206;2023-04-24T00:36:51;13.80;99.90
36352;DHT22;22382;44.768;17.206;2023-04-24T00:39:19;13.70;99.90
36352;DHT22;22382;44.768;17.206;2023-04-24T00:41:46;13.80;99.90
36352;DHT22;22382;44.768;17.206;2023-04-24T00:44:15;13.80;99.90
36352;DHT22;22382;44.768;17.206;2023-04-24T00:46:42;13.70;99.90
36352;DHT22;22382;44.768;17.206;2023-04-24T00:49:11;13.70;99.90
36352;DHT22;22382;44.768;17.206;2023-04-24T00:51:38;13.60;99.90
36352;DHT22;22382;44.768;17.206;2023-04-24T00:54:07;13.60;99.90
36352;DHT22;22382;44.768;17.206;2023-04-24T00:56:34;13.50;99.90
36352;DHT22;22382;44.768;17.206;2023-04-24T00:59:02;13.60;99.90
36352;DHT22;22382;44.768;17.206;2023-04-24T01:01:29;13.60;99.90
36352;DHT22;22382;44.768;17.206;2023-04-24T01:03:57;13.60;99.90
36352;DHT22;22382;44.768;17.206;2023-04-24T01:06:28;13.50;99.90
36352;DHT22;22382;44.768;17.206;2023-04-24T01:08:55;13.50;99.90
36352;DHT22;22382;44.768;17.206;2023-04-24T01:11:22;13.60;99.90
36352;DHT22;22382;44.768;17.206;2023-04-24T01:13:50;13.50;99.90
36352;DHT22;22382;44.768;17.206;2023-04-24T01:16:18;13.60;99.90
36352;DHT22;22382;44.768;17.206;2023-04-24T01:18:47;13.60;99.90
36352;DHT22;22382;44.768;17.206;2023-04-24T01:21:15;13.70;99.90
36352;DHT22;22382;44.768;17.206;2023-04-24T01:23:46;13.70;99.90
36352;DHT22;22382;44.768;17.206;2023-04-24T01:26:16;13.80;99.90
36352;DHT22;22382;44.768;17.206;2023-04-24T01:28:44;13.80;99.90
36352;DHT22;22382;44.768;17.206;2023-04-24T01:31:11;13.90;99.90
36352;DHT22;22382;44.768;17.206;2023-04-24T01:33:38;13.90;99.80
36352;DHT22;22382;44.768;17.206;2023-04-24T01:36:06;14.00;99.10
36352;DHT22;22382;44.768;17.206;2023-04-24T01:38:33;14.00;99.70
36352;DHT22;22382;44.768;17.206;2023-04-24T01:41:00;14.00;98.90
36352;DHT22;22382;44.768;17.206;2023-04-24T01:43:28;14.00;98.60
36352;DHT22;22382;44.768;17.206;2023-04-24T01:45:56;14.00;99.50
36352;DHT22;22382;44.768;17.206;2023-04-24T01:48:24;14.00;99.30
36352;DHT22;22382;44.768;17.206;2023-04-24T01:50:51;14.10;98.30
36352;DHT22;22382;44.768;17.206;2023-04-24T01:53:18;14.10;97.60
36352;DHT22;22382;44.768;17.206;2023-04-24T01:55:46;14.10;95.30
36352;DHT22;22382;44.768;17.206;2023-04-24T01:58:14;14.20;96.50
36352;DHT22;22382;44.768;17.206;2023-04-24T02:00:41;14.20;97.30
36352;DHT22;22382;44.768;17.206;2023-04-24T02:03:08;14.20;97.80
36352;DHT22;22382;44.768;17.206;2023-04-24T02:05:36;14.20;96.70
36352;DHT22;22382;44.768;17.206;2023-04-24T02:08:03;14.30;93.90
36352;DHT22;22382;44.768;17.206;2023-04-24T02:10:30;14.40;92.40
36352;DHT22;22382;44.768;17.206;2023-04-24T02:12:57;14.40;91.60
36352;DHT22;22382;44.768;17.206;2023-04-24T02:15:26;14.40;90.70
36352;DHT22;22382;44.768;17.206;2023-04-24T02:17:53;14.50;91.10
36352;DHT22;22382;44.768;17.206;2023-04-24T02:20:20;14.60;91.30
36352;DHT22;22382;44.768;17.206;2023-04-24T02:22:48;14.50;91.80
36352;DHT22;22382;44.768;17.206;2023-04-24T02:25:15;14.60;88.70
36352;DHT22;22382;44.768;17.206;2023-04-24T02:27:44;14.60;90.20
36352;DHT22;22382;44.768;17.206;2023-04-24T02:30:11;14.60;91.40
36352;DHT22;22382;44.768;17.206;2023-04-24T02:32:38;14.60;92.00
36352;DHT22;22382;44.768;17.206;2023-04-24T02:35:06;14.50;93.30
36352;DHT22;22382;44.768;17.206;2023-04-24T02:37:33;14.60;92.10
36352;DHT22;22382;44.768;17.206;2023-04-24T02:40:00;14.70;90.20
36352;DHT22;22382;44.768;17.206;2023-04-24T02:42:27;14.70;88.00
36352;DHT22;22382;44.768;17.206;2023-04-24T02:44:55;14.70;89.00
36352;DHT22;22382;44.768;17.206;2023-04-24T02:47:22;14.70;90.10
36352;DHT22;22382;44.768;17.206;2023-04-24T02:49:49;14.70;90.70
36352;DHT22;22382;44.768;17.206;2023-04-24T02:52:16;14.70;90.50
36352;DHT22;22382;44.768;17.206;2023-04-24T02:54:43;14.80;90.00
36352;DHT22;22382;44.768;17.206;2023-04-24T02:57:10;14.80;90.30
36352;DHT22;22382;44.768;17.206;2023-04-24T02:59:37;14.90;89.30
36352;DHT22;22382;44.768;17.206;2023-04-24T03:02:05;15.00;89.90
36352;DHT22;22382;44.768;17.206;2023-04-24T03:04:32;15.00;90.20
36352;DHT22;22382;44.768;17.206;2023-04-24T03:07:00;15.00;92.50
36352;DHT22;22382;44.768;17.206;2023-04-24T03:09:28;15.10;90.70
36352;DHT22;22382;44.768;17.206;2023-04-24T03:11:55;15.30;84.40
36352;DHT22;22382;44.768;17.206;2023-04-24T03:14:23;15.40;79.60
36352;DHT22;22382;44.768;17.206;2023-04-24T03:16:50;15.50;78.50
36352;DHT22;22382;44.768;17.206;2023-04-24T03:19:17;15.70;77.10
36352;DHT22;22382;44.768;17.206;2023-04-24T03:21:44;15.90;77.30
36352;DHT22;22382;44.768;17.206;2023-04-24T03:24:11;16.00;76.10
36352;DHT22;22382;44.768;17.206;2023-04-24T03:26:39;16.10;74.10
36352;DHT22;22382;44.768;17.206;2023-04-24T03:29:06;16.10;74.80
36352;DHT22;22382;44.768;17.206;2023-04-24T03:31:33;16.20;73.60
36352;DHT22;22382;44.768;17.206;2023-04-24T03:34:00;16.30;73.60
36352;DHT22;22382;44.768;17.206;2023-04-24T03:36:27;16.30;73.90
36352;DHT22;22382;44.768;17.206;2023-04-24T03:38:54;16.30;71.80
36352;DHT22;22382;44.768;17.206;2023-04-24T03:41:22;16.30;71.30
36352;DHT22;22382;44.768;17.206;2023-04-24T03:43:49;16.40;72.00
36352;DHT22;22382;44.768;17.206;2023-04-24T03:46:16;16.40;72.90
36352;DHT22;22382;44.768;17.206;2023-04-24T03:48:44;16.40;74.10
36352;DHT22;22382;44.768;17.206;2023-04-24T03:51:11;16.30;74.50
36352;DHT22;22382;44.768;17.206;2023-04-24T03:53:38;16.30;76.00
36352;DHT22;22382;44.768;17.206;2023-04-24T03:56:05;16.40;75.90
36352;DHT22;22382;44.768;17.206;2023-04-24T03:58:32;16.30;76.20
36352;DHT22;22382;44.768;17.206;2023-04-24T04:00:59;16.30;78.20
36352;DHT22;22382;44.768;17.206;2023-04-24T04:03:27;16.20;79.80
36352;DHT22;22382;44.768;17.206;2023-04-24T04:05:54;16.10;83.90
36352;DHT22;22382;44.768;17.206;2023-04-24T04:08:22;16.00;87.80
36352;DHT22;22382;44.768;17.206;2023-04-24T04:10:49;15.90;89.80
36352;DHT22;22382;44.768;17.206;2023-04-24T04:13:16;15.80;91.70
36352;DHT22;22382;44.768;17.206;2023-04-24T04:15:43;15.70;95.20
36352;DHT22;22382;44.768;17.206;2023-04-24T04:18:10;15.70;95.90
36352;DHT22;22382;44.768;17.206;2023-04-24T04:20:38;15.60;93.50
36352;DHT22;22382;44.768;17.206;2023-04-24T04:23:05;15.60;91.30
36352;DHT22;22382;44.768;17.206;2023-04-24T04:25:33;15.70;93.70
36352;DHT22;22382;44.768;17.206;2023-04-24T04:28:00;15.70;95.40
36352;DHT22;22382;44.768;17.206;2023-04-24T04:30:28;15.50;99.90
36352;DHT22;22382;44.768;17.206;2023-04-24T04:32:59;15.50;99.70
36352;DHT22;22382;44.768;17.206;2023-04-24T04:35:27;15.40;97.10
36352;DHT22;22382;44.768;17.206;2023-04-24T04:37:54;15.40;99.90
36352;DHT22;22382;44.768;17.206;2023-04-24T04:40:25;15.40;99.90
36352;DHT22;22382;44.768;17.206;2023-04-24T04:42:55;15.40;99.90
36352;DHT22;22382;44.768;17.206;2023-04-24T04:45:22;15.40;99.90
36352;DHT22;22382;44.768;17.206;2023-04-24T04:47:51;15.40;99.90
36352;DHT22;22382;44.768;17.206;2023-04-24T04:50:18;15.40;99.90
36352;DHT22;22382;44.768;17.206;2023-04-24T04:52:46;15.40;99.90
36352;DHT22;22382;44.768;17.206;2023-04-24T04:55:13;15.40;99.90
36352;DHT22;22382;44.768;17.206;2023-04-24T04:57:41;15.30;99.90
36352;DHT22;22382;44.768;17.206;2023-04-24T05:00:09;15.30;99.90
36352;DHT22;22382;44.768;17.206;2023-04-24T05:02:38;15.20;99.90
36352;DHT22;22382;44.768;17.206;2023-04-24T05:05:07;15.20;99.90
36352;DHT22;22382;44.768;17.206;2023-04-24T05:07:34;15.20;99.90
36352;DHT22;22382;44.768;17.206;2023-04-24T05:10:02;15.20;99.90
36352;DHT22;22382;44.768;17.206;2023-04-24T05:12:30;15.10;99.90
36352;DHT22;22382;44.768;17.206;2023-04-24T05:14:57;15.20;99.90
36352;DHT22;22382;44.768;17.206;2023-04-24T05:17:25;15.20;99.90
36352;DHT22;22382;44.768;17.206;2023-04-24T05:19:52;15.20;99.90
36352;DHT22;22382;44.768;17.206;2023-04-24T05:22:19;15.10;99.90
36352;DHT22;22382;44.768;17.206;2023-04-24T05:24:47;15.00;99.90
36352;DHT22;22382;44.768;17.206;2023-04-24T05:27:15;15.00;99.90
36352;DHT22;22382;44.768;17.206;2023-04-24T05:29:42;14.90;99.90
36352;DHT22;22382;44.768;17.206;2023-04-24T05:32:10;14.80;99.90
36352;DHT22;22382;44.768;17.206;2023-04-24T05:34:37;14.90;99.90
36352;DHT22;22382;44.768;17.206;2023-04-24T05:37:05;15.00;99.90
36352;DHT22;22382;44.768;17.206;2023-04-24T05:39:35;15.00;99.90
36352;DHT22;22382;44.768;17.206;2023-04-24T05:42:03;14.90;99.90
36352;DHT22;22382;44.768;17.206;2023-04-24T05:44:31;14.80;99.90
36352;DHT22;22382;44.768;17.206;2023-04-24T05:46:58;14.70;99.90
36352;DHT22;22382;44.768;17.206;2023-04-24T05:49:25;14.70;99.90
36352;DHT22;22382;44.768;17.206;2023-04-24T05:51:53;14.80;99.90
36352;DHT22;22382;44.768;17.206;2023-04-24T05:54:20;14.90;99.90
36352;DHT22;22382;44.768;17.206;2023-04-24T05:56:49;15.00;99.90
36352;DHT22;22382;44.768;17.206;2023-04-24T05:59:17;15.10;99.90
36352;DHT22;22382;44.768;17.206;2023-04-24T06:01:44;15.20;99.90
36352;DHT22;22382;44.768;17.206;2023-04-24T06:04:12;15.30;99.90
36352;DHT22;22382;44.768;17.206;2023-04-24T06:06:40;15.40;99.90
36352;DHT22;22382;44.768;17.206;2023-04-24T06:09:08;15.10;99.90
36352;DHT22;22382;44.768;17.206;2023-04-24T06:11:35;14.90;99.90
36352;DHT22;22382;44.768;17.206;2023-04-24T06:14:02;14.80;99.90
36352;DHT22;22382;44.768;17.206;2023-04-24T06:16:30;14.80;99.90
36352;DHT22;22382;44.768;17.206;2023-04-24T06:18:58;14.90;99.90
36352;DHT22;22382;44.768;17.206;2023-04-24T06:21:25;15.00;99.90
36352;DHT22;22382;44.768;17.206;2023-04-24T06:23:52;15.20;99.90
36352;DHT22;22382;44.768;17.206;2023-04-24T06:26:19;15.40;99.90
36352;DHT22;22382;44.768;17.206;2023-04-24T06:28:46;15.50;99.90
36352;DHT22;22382;44.768;17.206;2023-04-24T06:31:14;15.60;99.90
36352;DHT22;22382;44.768;17.206;2023-04-24T06:33:41;15.70;99.90
36352;DHT22;22382;44.768;17.206;2023-04-24T06:36:08;15.80;99.90
36352;DHT22;22382;44.768;17.206;2023-04-24T06:38:35;15.80;99.90
36352;DHT22;22382;44.768;17.206;2023-04-24T06:41:02;16.00;99.90
36352;DHT22;22382;44.768;17.206;2023-04-24T06:43:32;16.10;99.90
36352;DHT22;22382;44.768;17.206;2023-04-24T06:46:00;16.20;99.90
36352;DHT22;22382;44.768;17.206;2023-04-24T06:48:27;16.20;99.90
36352;DHT22;22382;44.768;17.206;2023-04-24T06:50:54;16.30;99.90
36352;DHT22;22382;44.768;17.206;2023-04-24T06:53:21;16.40;99.90
36352;DHT22;22382;44.768;17.206;2023-04-24T06:55:49;16.30;99.90
36352;DHT22;22382;44.768;17.206;2023-04-24T06:58:16;16.30;99.90
36352;DHT22;22382;44.768;17.206;2023-04-24T07:00:43;16.50;99.90
36352;DHT22;22382;44.768;17.206;2023-04-24T07:03:10;16.60;99.90
36352;DHT22;22382;44.768;17.206;2023-04-24T07:05:38;16.80;99.90
36352;DHT22;22382;44.768;17.206;2023-04-24T07:08:05;17.00;99.90
36352;DHT22;22382;44.768;17.206;2023-04-24T07:10:33;17.20;99.90
36352;DHT22;22382;44.768;17.206;2023-04-24T07:13:00;17.40;99.90
36352;DHT22;22382;44.768;17.206;2023-04-24T07:15:28;17.40;99.90
36352;DHT22;22382;44.768;17.206;2023-04-24T07:17:55;17.60;99.90
36352;DHT22;22382;44.768;17.206;2023-04-24T07:20:23;17.80;99.90
36352;DHT22;22382;44.768;17.206;2023-04-24T07:22:50;17.90;99.90
36352;DHT22;22382;44.768;17.206;2023-04-24T07:25:18;17.90;99.90
36352;DHT22;22382;44.768;17.206;2023-04-24T07:27:45;18.10;99.90
36352;DHT22;22382;44.768;17.206;2023-04-24T07:30:13;18.20;99.90
36352;DHT22;22382;44.768;17.206;2023-04-24T07:32:40;18.30;99.90
36352;DHT22;22382;44.768;17.206;2023-04-24T07:35:07;17.90;99.90
36352;DHT22;22382;44.768;17.206;2023-04-24T07:37:38;17.70;99.90
36352;DHT22;22382;44.768;17.206;2023-04-24T07:40:06;17.70;99.90
36352;DHT22;22382;44.768;17.206;2023-04-24T07:42:33;17.70;99.90
36352;DHT22;22382;44.768;17.206;2023-04-24T07:45:01;17.80;99.90
36352;DHT22;22382;44.768;17.206;2023-04-24T07:47:28;17.70;99.90
36352;DHT22;22382;44.768;17.206;2023-04-24T07:49:56;17.60;99.90
36352;DHT22;22382;44.768;17.206;2023-04-24T07:52:23;17.60;99.90
36352;DHT22;22382;44.768;17.206;2023-04-24T07:54:51;17.50;99.90
36352;DHT22;22382;44.768;17.206;2023-04-24T07:57:25;17.30;99.90
36352;DHT22;22382;44.768;17.206;2023-04-24T07:59:52;17.00;99.90
36352;DHT22;22382;44.768;17.206;2023-04-24T08:02:20;16.90;99.90
36352;DHT22;22382;44.768;17.206;2023-04-24T08:04:53;16.80;99.90
36352;DHT22;22382;44.768;17.206;2023-04-24T08:07:25;16.60;99.90
36352;DHT22;22382;44.768;17.206;2023-04-24T08:09:53;16.40;99.90
36352;DHT22;22382;44.768;17.206;2023-04-24T08:12:20;16.50;99.90
36352;DHT22;22382;44.768;17.206;2023-04-24T08:14:47;16.60;99.90
36352;DHT22;22382;44.768;17.206;2023-04-24T08:17:14;16.70;99.90
36352;DHT22;22382;44.768;17.206;2023-04-24T08:19:41;16.80;99.90
36352;DHT22;22382;44.768;17.206;2023-04-24T08:22:15;16.60;99.90
36352;DHT22;22382;44.768;17.206;2023-04-24T08:24:42;16.70;99.90
36352;DHT22;22382;44.768;17.206;2023-04-24T08:27:10;16.80;99.90
36352;DHT22;22382;44.768;17.206;2023-04-24T08:29:37;17.00;99.90
36352;DHT22;22382;44.768;17.206;2023-04-24T08:32:04;16.90;99.90
36352;DHT22;22382;44.768;17.206;2023-04-24T08:34:32;17.20;99.90
36352;DHT22;22382;44.768;17.206;2023-04-24T08:36:59;17.30;99.90
36352;DHT22;22382;44.768;17.206;2023-04-24T08:39:27;17.10;99.90
36352;DHT22;22382;44.768;17.206;2023-04-24T08:41:55;17.40;99.90
36352;DHT22;22382;44.768;17.206;2023-04-24T08:44:22;17.50;99.90
36352;DHT22;22382;44.768;17.206;2023-04-24T08:46:50;17.50;99.90
36352;DHT22;22382;44.768;17.206;2023-04-24T08:49:19;17.90;99.90
36352;DHT22;22382;44.768;17.206;2023-04-24T08:51:46;18.10;99.90
36352;DHT22;22382;44.768;17.206;2023-04-24T08:54:14;18.00;99.90
36352;DHT22;22382;44.768;17.206;2023-04-24T08:56:44;18.30;99.90
36352;DHT22;22382;44.768;17.206;2023-04-24T08:59:11;18.80;99.90
36352;DHT22;22382;44.768;17.206;2023-04-24T09:01:40;19.00;99.90
36352;DHT22;22382;44.768;17.206;2023-04-24T09:04:09;19.10;99.90
36352;DHT22;22382;44.768;17.206;2023-04-24T09:06:42;19.20;99.60
36352;DHT22;22382;44.768;17.206;2023-04-24T09:09:10;18.90;99.90
36352;DHT22;22382;44.768;17.206;2023-04-24T09:11:38;18.90;99.90
36352;DHT22;22382;44.768;17.206;2023-04-24T09:14:06;19.10;99.90
36352;DHT22;22382;44.768;17.206;2023-04-24T09:16:35;19.10;99.90
36352;DHT22;22382;44.768;17.206;2023-04-24T09:19:02;19.10;98.30
36352;DHT22;22382;44.768;17.206;2023-04-24T09:21:34;19.20;95.30
36352;DHT22;22382;44.768;17.206;2023-04-24T09:24:05;19.40;94.30
36352;DHT22;22382;44.768;17.206;2023-04-24T09:26:36;19.30;93.70
36352;DHT22;22382;44.768;17.206;2023-04-24T09:29:04;19.20;91.60
36352;DHT22;22382;44.768;17.206;2023-04-24T09:31:32;19.10;92.30
36352;DHT22;22382;44.768;17.206;2023-04-24T09:34:03;19.10;97.60
36352;DHT22;22382;44.768;17.206;2023-04-24T09:36:36;19.30;97.50
36352;DHT22;22382;44.768;17.206;2023-04-24T09:39:07;19.10;99.90
36352;DHT22;22382;44.768;17.206;2023-04-24T09:41:52;18.50;99.90
36352;DHT22;22382;44.768;17.206;2023-04-24T09:44:21;18.20;99.90
36352;DHT22;22382;44.768;17.206;2023-04-24T09:46:53;18.50;99.90
36352;DHT22;22382;44.768;17.206;2023-04-24T09:49:26;18.40;99.90
36352;DHT22;22382;44.768;17.206;2023-04-24T09:52:04;18.60;99.90
36352;DHT22;22382;44.768;17.206;2023-04-24T09:54:32;19.10;99.10
36352;DHT22;22382;44.768;17.206;2023-04-24T09:57:00;19.40;97.30
36352;DHT22;22382;44.768;17.206;2023-04-24T09:59:27;19.80;92.90
36352;DHT22;22382;44.768;17.206;2023-04-24T10:01:55;19.30;93.00
36352;DHT22;22382;44.768;17.206;2023-04-24T10:04:26;19.40;93.10
36352;DHT22;22382;44.768;17.206;2023-04-24T10:06:55;19.10;95.00
36352;DHT22;22382;44.768;17.206;2023-04-24T10:09:25;19.60;93.20
36352;DHT22;22382;44.768;17.206;2023-04-24T10:11:53;19.90;92.40
36352;DHT22;22382;44.768;17.206;2023-04-24T10:14:24;20.10;92.40
36352;DHT22;22382;44.768;17.206;2023-04-24T10:16:54;20.50;88.80
36352;DHT22;22382;44.768;17.206;2023-04-24T10:19:25;20.50;88.00
36352;DHT22;22382;44.768;17.206;2023-04-24T10:21:53;20.70;87.40
36352;DHT22;22382;44.768;17.206;2023-04-24T10:24:22;19.90;92.10
36352;DHT22;22382;44.768;17.206;2023-04-24T10:26:49;19.80;93.60
36352;DHT22;22382;44.768;17.206;2023-04-24T10:29:19;19.80;93.60
36352;DHT22;22382;44.768;17.206;2023-04-24T10:31:48;19.50;96.90
36352;DHT22;22382;44.768;17.206;2023-04-24T10:34:17;19.80;95.10
36352;DHT22;22382;44.768;17.206;2023-04-24T10:36:51;20.10;95.40
36352;DHT22;22382;44.768;17.206;2023-04-24T10:39:21;20.20;93.40
36352;DHT22;22382;44.768;17.206;2023-04-24T10:41:54;20.80;90.00
36352;DHT22;22382;44.768;17.206;2023-04-24T10:44:24;21.20;86.20
36352;DHT22;22382;44.768;17.206;2023-04-24T10:46:55;21.20;83.10
36352;DHT22;22382;44.768;17.206;2023-04-24T10:49:30;21.40;83.00
36352;DHT22;22382;44.768;17.206;2023-04-24T10:52:02;21.00;85.20
36352;DHT22;22382;44.768;17.206;2023-04-24T10:54:44;21.00;86.00
36352;DHT22;22382;44.768;17.206;2023-04-24T11:00:09;20.70;89.60
36352;DHT22;22382;44.768;17.206;2023-04-24T11:02:40;21.00;87.30
36352;DHT22;22382;44.768;17.206;2023-04-24T11:05:10;21.30;84.40
36352;DHT22;22382;44.768;17.206;2023-04-24T11:08:11;21.20;86.70
36352;DHT22;22382;44.768;17.206;2023-04-24T11:10:40;21.60;83.20
36352;DHT22;22382;44.768;17.206;2023-04-24T11:13:08;21.30;84.60
36352;DHT22;22382;44.768;17.206;2023-04-24T11:15:37;21.50;83.40
36352;DHT22;22382;44.768;17.206;2023-04-24T11:18:04;21.60;82.50
36352;DHT22;22382;44.768;17.206;2023-04-24T11:20:31;21.60;80.60
36352;DHT22;22382;44.768;17.206;2023-04-24T11:23:03;20.80;84.40
36352;DHT22;22382;44.768;17.206;2023-04-24T11:25:31;20.70;85.20
36352;DHT22;22382;44.768;17.206;2023-04-24T11:28:05;20.60;87.40
36352;DHT22;22382;44.768;17.206;2023-04-24T11:30:33;20.20;91.20
36352;DHT22;22382;44.768;17.206;2023-04-24T11:33:04;19.90;94.60
36352;DHT22;22382;44.768;17.206;2023-04-24T11:35:39;19.70;98.10
36352;DHT22;22382;44.768;17.206;2023-04-24T11:38:07;19.50;99.90
36352;DHT22;22382;44.768;17.206;2023-04-24T11:40:38;19.40;99.90
36352;DHT22;22382;44.768;17.206;2023-04-24T11:43:06;19.00;99.90
36352;DHT22;22382;44.768;17.206;2023-04-24T11:45:34;18.90;99.90
36352;DHT22;22382;44.768;17.206;2023-04-24T11:48:02;18.80;99.90
36352;DHT22;22382;44.768;17.206;2023-04-24T11:50:30;18.90;99.90
36352;DHT22;22382;44.768;17.206;2023-04-24T11:52:58;19.00;99.90
36352;DHT22;22382;44.768;17.206;2023-04-24T11:55:28;19.10;99.90
36352;DHT22;22382;44.768;17.206;2023-04-24T11:57:57;19.00;99.90
36352;DHT22;22382;44.768;17.206;2023-04-24T12:00:28;18.80;99.90
36352;DHT22;22382;44.768;17.206;2023-04-24T12:03:07;18.50;99.90
36352;DHT22;22382;44.768;17.206;2023-04-24T12:05:36;18.40;99.90
36352;DHT22;22382;44.768;17.206;2023-04-24T12:08:04;18.40;99.90
36352;DHT22;22382;44.768;17.206;2023-04-24T12:10:33;18.30;99.90
36352;DHT22;22382;44.768;17.206;2023-04-24T12:13:00;18.40;99.90
36352;DHT22;22382;44.768;17.206;2023-04-24T12:15:28;18.60;99.90
36352;DHT22;22382;44.768;17.206;2023-04-24T12:17:55;18.80;99.90
36352;DHT22;22382;44.768;17.206;2023-04-24T12:20:29;18.80;99.90
36352;DHT22;22382;44.768;17.206;2023-04-24T12:22:58;19.00;99.90
36352;DHT22;22382;44.768;17.206;2023-04-24T12:25:31;19.40;99.90
36352;DHT22;22382;44.768;17.206;2023-04-24T12:30:48;20.00;99.90
36352;DHT22;22382;44.768;17.206;2023-04-24T12:33:21;20.20;99.90
36352;DHT22;22382;44.768;17.206;2023-04-24T12:35:51;20.00;99.90
36352;DHT22;22382;44.768;17.206;2023-04-24T12:38:25;19.40;99.90
36352;DHT22;22382;44.768;17.206;2023-04-24T12:41:09;19.40;99.90
36352;DHT22;22382;44.768;17.206;2023-04-24T12:43:37;19.70;99.90
36352;DHT22;22382;44.768;17.206;2023-04-24T12:46:05;19.90;99.90
36352;DHT22;22382;44.768;17.206;2023-04-24T12:48:32;20.20;99.90
36352;DHT22;22382;44.768;17.206;2023-04-24T12:51:00;20.20;99.90
36352;DHT22;22382;44.768;17.206;2023-04-24T12:53:29;20.40;99.90
36352;DHT22;22382;44.768;17.206;2023-04-24T12:55:58;20.30;99.60
36352;DHT22;22382;44.768;17.206;2023-04-24T12:58:25;19.70;99.90
36352;DHT22;22382;44.768;17.206;2023-04-24T13:00:52;19.70;99.90
36352;DHT22;22382;44.768;17.206;2023-04-24T13:03:20;19.80;99.90
36352;DHT22;22382;44.768;17.206;2023-04-24T13:05:49;19.70;99.90
36352;DHT22;22382;44.768;17.206;2023-04-24T13:08:16;19.70;99.90
36352;DHT22;22382;44.768;17.206;2023-04-24T13:10:44;19.80;99.90
36352;DHT22;22382;44.768;17.206;2023-04-24T13:13:11;19.90;99.90
36352;DHT22;22382;44.768;17.206;2023-04-24T13:15:38;19.70;99.90
36352;DHT22;22382;44.768;17.206;2023-04-24T13:18:06;19.60;99.90
36352;DHT22;22382;44.768;17.206;2023-04-24T13:20:33;19.30;99.90
36352;DHT22;22382;44.768;17.206;2023-04-24T13:23:02;19.10;99.90
36352;DHT22;22382;44.768;17.206;2023-04-24T13:25:36;19.00;99.90
36352;DHT22;22382;44.768;17.206;2023-04-24T13:28:06;18.80;99.90
36352;DHT22;22382;44.768;17.206;2023-04-24T13:30:33;18.60;99.90
36352;DHT22;22382;44.768;17.206;2023-04-24T13:33:01;18.30;99.90
36352;DHT22;22382;44.768;17.206;2023-04-24T13:35:28;18.30;99.90
36352;DHT22;22382;44.768;17.206;2023-04-24T13:37:56;18.30;99.90
36352;DHT22;22382;44.768;17.206;2023-04-24T13:40:23;18.30;99.90
36352;DHT22;22382;44.768;17.206;2023-04-24T13:42:50;18.40;99.90
36352;DHT22;22382;44.768;17.206;2023-04-24T13:45:18;18.20;99.90
36352;DHT22;22382;44.768;17.206;2023-04-24T13:47:51;18.10;99.90
36352;DHT22;22382;44.768;17.206;2023-04-24T13:50:21;18.10;99.90
36352;DHT22;22382;44.768;17.206;2023-04-24T13:52:48;18.20;99.90
36352;DHT22;22382;44.768;17.206;2023-04-24T13:55:16;18.30;99.90
36352;DHT22;22382;44.768;17.206;2023-04-24T13:57:43;18.40;99.90
36352;DHT22;22382;44.768;17.206;2023-04-24T14:00:11;18.30;99.90
36352;DHT22;22382;44.768;17.206;2023-04-24T14:02:40;18.30;99.90
36352;DHT22;22382;44.768;17.206;2023-04-24T14:05:08;18.20;99.90
36352;DHT22;22382;44.768;17.206;2023-04-24T14:07:38;17.90;99.90
36352;DHT22;22382;44.768;17.206;2023-04-24T14:10:06;18.00;99.90
36352;DHT22;22382;44.768;17.206;2023-04-24T14:12:34;18.00;99.90
36352;DHT22;22382;44.768;17.206;2023-04-24T14:15:01;18.10;99.90
36352;DHT22;22382;44.768;17.206;2023-04-24T14:17:29;18.20;99.90
36352;DHT22;22382;44.768;17.206;2023-04-24T14:19:56;18.20;99.90
36352;DHT22;22382;44.768;17.206;2023-04-24T14:22:23;18.40;99.90
36352;DHT22;22382;44.768;17.206;2023-04-24T14:24:50;18.40;99.90
36352;DHT22;22382;44.768;17.206;2023-04-24T14:27:17;18.50;99.90
36352;DHT22;22382;44.768;17.206;2023-04-24T14:29:45;18.60;99.90
36352;DHT22;22382;44.768;17.206;2023-04-24T14:32:12;18.60;99.90
36352;DHT22;22382;44.768;17.206;2023-04-24T14:34:41;18.60;99.90
36352;DHT22;22382;44.768;17.206;2023-04-24T14:37:09;18.60;99.90
36352;DHT22;22382;44.768;17.206;2023-04-24T14:39:36;18.60;99.90
36352;DHT22;22382;44.768;17.206;2023-04-24T14:42:03;18.50;99.90
36352;DHT22;22382;44.768;17.206;2023-04-24T14:44:30;18.50;99.90
36352;DHT22;22382;44.768;17.206;2023-04-24T14:46:58;18.50;99.90
36352;DHT22;22382;44.768;17.206;2023-04-24T14:49:26;18.50;99.90
36352;DHT22;22382;44.768;17.206;2023-04-24T14:51:53;18.50;99.90
36352;DHT22;22382;44.768;17.206;2023-04-24T14:54:20;18.40;99.90
36352;DHT22;22382;44.768;17.206;2023-04-24T14:56:50;18.40;99.90
36352;DHT22;22382;44.768;17.206;2023-04-24T14:59:17;18.30;99.90
36352;DHT22;22382;44.768;17.206;2023-04-24T15:01:44;18.20;99.90
36352;DHT22;22382;44.768;17.206;2023-04-24T15:04:12;18.00;99.90
36352;DHT22;22382;44.768;17.206;2023-04-24T15:06:39;17.80;99.90
36352;DHT22;22382;44.768;17.206;2023-04-24T15:09:07;17.70;99.90
36352;DHT22;22382;44.768;17.206;2023-04-24T15:11:36;17.50;99.90
36352;DHT22;22382;44.768;17.206;2023-04-24T15:14:04;17.50;99.90
36352;DHT22;22382;44.768;17.206;2023-04-24T15:16:31;17.80;99.80
36352;DHT22;22382;44.768;17.206;2023-04-24T15:18:59;17.90;93.90
36352;DHT22;22382;44.768;17.206;2023-04-24T15:21:27;18.00;89.10
36352;DHT22;22382;44.768;17.206;2023-04-24T15:23:54;17.90;84.70
36352;DHT22;22382;44.768;17.206;2023-04-24T15:26:23;17.80;83.70